Sperry, Missouri
Current Conditions -  °F | °C
As of 5:55 PM on Monday 22 Dec 2014 (Local Time) from KIRK Reporting Station
Moderate Rain Moderate Rain  
Wind Chill:   Ceiling: 300
Heat Index:   Visibility: 3mi
Dew Point:   Wind: 8mph
Humidity: 100%   Direction: 130°SE
Pressure: 29.47"   Gusts: NA
Location:  40.149°N, 92.6667°W
Report Text: KIRK 222355Z AUTO 13007KT 3SM RA BR OVC003 06/06 A2947 RMK AO2 RAB2256 SLP985 P0005 60009 T00610061 10061 20044 56004
Loading
Personal Weather Stations






























Interactive Weather Map New forecast layout! Learn more

10-Day Weather Forecast

Advertisements
Track Severe Weather on mobile